METAR Data
IDs: Format: Raw Decoded Include TAF

Data at: 2318 UTC 26 Feb 2020

METAR for:KHLX (Hillsville/Twin Cnty, VA, US)
Text:KHLX 262315Z AUTO 27011G21KT 7SM -RA SCT011 BKN023 OVC028 05/05 A2968 RMK AO2 P0004 T00530047
Temperature: 5.3°C ( 42°F)
Dewpoint: 4.7°C ( 40°F) [RH = 96%]
Pressure (altimeter):29.68 inches Hg (1005.2 mb)
Winds:from the W (270 degrees) at 13 MPH (11 knots; 5.7 m/s) gusting to 24 MPH (21 knots; 10.8 m/s)
Visibility: 7 sm ( 11 km)
Ceiling:2300 feet AGL
Clouds: scattered clouds at 1100 feet AGL, broken clouds at 2300 feet AGL, overcast cloud deck at 2800 feet AGL
Weather:-RA (light rain)
QC Flag:automated observation with no human augmentation